createdAt,value
2023-12-29T00:01:34.610Z,90.62
2023-12-29T00:04:07.102Z,90.53
2023-12-29T00:06:49.893Z,90.44
2023-12-29T00:09:29.361Z,90.38
2023-12-29T00:12:01.398Z,90.37
2023-12-29T00:14:55.767Z,90.32
2023-12-29T00:17:27.799Z,90.10
2023-12-29T00:19:59.939Z,90.05
2023-12-29T00:22:31.813Z,90.09
2023-12-29T00:25:04.101Z,89.79
2023-12-29T00:27:37.806Z,90.01
2023-12-29T00:30:11.916Z,90.21
2023-12-29T00:32:44.092Z,90.36
2023-12-29T00:35:16.434Z,90.25
2023-12-29T00:37:48.873Z,90.24
2023-12-29T00:40:20.911Z,90.50
2023-12-29T00:42:52.935Z,90.79
2023-12-29T00:45:24.974Z,90.66
2023-12-29T00:47:59.556Z,90.58
2023-12-29T00:50:31.988Z,90.41
2023-12-29T00:53:03.920Z,90.48
2023-12-29T00:55:35.855Z,90.35
2023-12-29T00:58:08.538Z,90.33
2023-12-29T01:00:41.057Z,90.56
2023-12-29T01:03:13.215Z,90.58
2023-12-29T01:05:46.156Z,90.82
2023-12-29T01:08:18.056Z,90.85
2023-12-29T01:10:49.989Z,90.51
2023-12-29T01:13:22.299Z,90.72
2023-12-29T01:15:54.676Z,90.75
2023-12-29T01:18:26.892Z,90.70
2023-12-29T01:21:01.227Z,90.62
2023-12-29T01:23:34.409Z,90.66
2023-12-29T01:26:06.708Z,90.74
2023-12-29T01:28:38.837Z,90.78
2023-12-29T01:31:12.761Z,90.31
2023-12-29T01:33:44.843Z,90.49
2023-12-29T01:36:25.328Z,90.27
2023-12-29T01:38:58.388Z,90.29
2023-12-29T01:41:30.683Z,90.44
2023-12-29T01:44:24.291Z,90.58
2023-12-29T01:46:59.053Z,90.11
2023-12-29T01:49:31.930Z,90.12
2023-12-29T01:52:05.057Z,90.00
2023-12-29T01:54:39.522Z,89.81
2023-12-29T01:57:13.143Z,89.66
2023-12-29T01:59:46.405Z,89.54
2023-12-29T02:02:19.413Z,89.61
2023-12-29T02:04:51.517Z,89.70
2023-12-29T02:07:23.867Z,89.84
2023-12-29T02:09:56.869Z,89.53
2023-12-29T02:12:29.058Z,89.35
2023-12-29T02:15:01.169Z,89.15
2023-12-29T02:17:38.241Z,89.29
2023-12-29T02:20:11.878Z,89.02
2023-12-29T02:22:44.070Z,89.13
2023-12-29T02:25:17.017Z,88.95
2023-12-29T02:27:55.963Z,89.00
2023-12-29T02:30:36.206Z,88.68
2023-12-29T02:33:12.839Z,88.96
2023-12-29T02:35:47.746Z,89.25
2023-12-29T02:38:19.845Z,89.43
2023-12-29T02:40:52.068Z,89.59
2023-12-29T02:43:24.118Z,89.64
2023-12-29T02:45:56.117Z,89.78
2023-12-29T02:48:28.343Z,90.06
2023-12-29T02:51:00.426Z,89.99
2023-12-29T02:53:33.043Z,90.38
2023-12-29T02:56:05.441Z,90.32
2023-12-29T02:58:37.349Z,90.63
2023-12-29T03:01:09.373Z,90.52
2023-12-29T03:03:42.304Z,90.73
2023-12-29T03:06:14.447Z,90.67
2023-12-29T03:08:46.418Z,90.56
2023-12-29T03:11:18.522Z,90.48
2023-12-29T03:13:50.407Z,90.39
2023-12-29T03:16:22.310Z,90.38
2023-12-29T03:18:54.278Z,90.25
2023-12-29T03:21:26.225Z,89.96
2023-12-29T03:23:58.157Z,90.05
2023-12-29T03:26:30.007Z,90.02
2023-12-29T03:29:02.125Z,89.76
2023-12-29T03:31:36.504Z,89.81
2023-12-29T03:34:09.238Z,89.64
2023-12-29T03:36:41.310Z,89.61
2023-12-29T03:39:13.248Z,89.71
2023-12-29T03:41:45.265Z,89.77
2023-12-29T03:44:18.637Z,89.61
2023-12-29T03:46:51.263Z,89.43
2023-12-29T03:49:23.217Z,89.44
2023-12-29T03:51:55.538Z,89.52
2023-12-29T03:54:27.512Z,89.57
2023-12-29T03:56:59.435Z,89.40
2023-12-29T03:59:31.349Z,89.26
2023-12-29T04:02:04.169Z,89.26
2023-12-29T04:04:38.410Z,89.40
2023-12-29T04:07:10.476Z,89.37
2023-12-29T04:09:42.512Z,89.43
2023-12-29T04:12:14.406Z,89.36
2023-12-29T04:14:47.051Z,89.04
2023-12-29T04:17:18.977Z,88.91
2023-12-29T04:19:50.970Z,88.75
2023-12-29T04:22:22.858Z,88.81
2023-12-29T04:24:54.832Z,88.97
2023-12-29T04:27:26.736Z,89.02
2023-12-29T04:29:58.645Z,89.29
2023-12-29T04:32:30.584Z,89.95
2023-12-29T04:35:02.843Z,90.38
2023-12-29T04:37:34.789Z,91.10
2023-12-29T04:40:08.375Z,91.18
2023-12-29T04:42:40.412Z,90.90
2023-12-29T04:45:13.563Z,91.27
2023-12-29T04:47:45.525Z,91.40
2023-12-29T04:50:17.700Z,91.57
2023-12-29T04:52:49.978Z,91.48
2023-12-29T04:55:22.083Z,91.52
2023-12-29T04:57:54.161Z,91.54
2023-12-29T05:00:28.375Z,91.85
2023-12-29T05:03:00.317Z,92.26
2023-12-29T05:05:32.615Z,92.60
2023-12-29T05:08:05.093Z,92.23
2023-12-29T05:10:37.982Z,92.39
2023-12-29T05:13:09.970Z,92.25
2023-12-29T05:15:42.119Z,92.34
2023-12-29T05:18:16.235Z,92.27
2023-12-29T05:20:48.264Z,92.25
2023-12-29T05:23:20.155Z,92.27
2023-12-29T05:25:52.209Z,92.00
2023-12-29T05:28:24.098Z,91.92
2023-12-29T05:30:56.115Z,92.25
2023-12-29T05:33:28.376Z,91.96
2023-12-29T05:36:00.335Z,91.93
2023-12-29T05:38:33.556Z,91.74
2023-12-29T05:41:06.100Z,91.88
2023-12-29T05:43:38.128Z,91.88
2023-12-29T05:46:14.637Z,91.61
2023-12-29T05:48:46.652Z,91.57
2023-12-29T05:51:18.597Z,91.38
2023-12-29T05:53:50.479Z,91.24
2023-12-29T05:56:22.960Z,91.01
2023-12-29T05:58:57.198Z,91.07
2023-12-29T06:01:29.255Z,91.11
2023-12-29T06:04:01.427Z,90.97
2023-12-29T06:06:33.737Z,90.87
2023-12-29T06:09:05.699Z,90.80
2023-12-29T06:11:40.401Z,90.63
2023-12-29T06:14:15.151Z,90.49
2023-12-29T06:16:47.088Z,90.48
2023-12-29T06:19:19.140Z,90.75
2023-12-29T06:21:53.595Z,90.66
2023-12-29T06:24:30.622Z,90.73
2023-12-29T06:27:02.836Z,90.64
2023-12-29T06:29:34.728Z,90.35
2023-12-29T06:32:07.679Z,90.45
2023-12-29T06:34:40.062Z,90.39
2023-12-29T06:37:12.824Z,90.48
2023-12-29T06:39:45.017Z,90.25
2023-12-29T06:42:17.097Z,90.41
2023-12-29T06:44:49.769Z,90.45
2023-12-29T06:47:21.781Z,90.58
2023-12-29T06:49:53.768Z,90.17
2023-12-29T06:52:26.546Z,90.31
2023-12-29T06:54:58.449Z,90.17
2023-12-29T06:57:30.574Z,89.94
2023-12-29T07:00:02.606Z,89.98
2023-12-29T07:02:34.944Z,89.82
2023-12-29T07:05:10.412Z,89.78
2023-12-29T07:07:42.483Z,89.50
2023-12-29T07:10:16.244Z,89.21
2023-12-29T07:12:48.267Z,89.34
2023-12-29T07:15:23.882Z,88.87
2023-12-29T07:17:56.133Z,88.74
2023-12-29T07:20:28.388Z,88.88
2023-12-29T07:23:00.698Z,88.68
2023-12-29T07:25:32.678Z,88.43
2023-12-29T07:28:05.662Z,88.32
2023-12-29T07:30:37.933Z,88.36
2023-12-29T07:33:10.001Z,88.11
2023-12-29T07:35:42.086Z,88.09
2023-12-29T07:38:14.116Z,88.47
2023-12-29T07:40:46.692Z,88.43
2023-12-29T07:43:18.689Z,88.06
2023-12-29T07:45:51.990Z,87.91
2023-12-29T07:48:24.356Z,88.11
2023-12-29T07:51:07.034Z,88.23
2023-12-29T07:53:39.044Z,88.14
2023-12-29T07:56:12.302Z,88.23
2023-12-29T07:58:46.419Z,87.76
2023-12-29T08:01:19.795Z,87.90
2023-12-29T08:03:51.942Z,87.72
2023-12-29T08:06:26.410Z,87.75
2023-12-29T08:08:59.136Z,87.85
2023-12-29T08:11:31.162Z,87.15
2023-12-29T08:14:03.794Z,87.41
2023-12-29T08:16:39.808Z,87.37
2023-12-29T08:19:12.263Z,87.16
2023-12-29T08:21:44.483Z,87.20
2023-12-29T08:24:18.202Z,87.33
2023-12-29T08:26:50.742Z,87.26
2023-12-29T08:29:22.945Z,86.81
2023-12-29T08:31:54.927Z,86.87
2023-12-29T08:34:28.635Z,86.85
2023-12-29T08:37:03.165Z,86.58
2023-12-29T08:39:35.290Z,86.62
2023-12-29T08:42:07.985Z,86.33
2023-12-29T08:44:39.926Z,86.77
2023-12-29T08:47:11.953Z,86.19
2023-12-29T08:49:44.584Z,86.29
2023-12-29T08:52:17.082Z,85.96
2023-12-29T08:54:49.228Z,85.85
2023-12-29T08:57:21.267Z,85.15
2023-12-29T08:59:53.441Z,84.34
2023-12-29T09:02:25.372Z,84.48
2023-12-29T09:04:57.655Z,83.40
2023-12-29T09:07:31.414Z,82.99
2023-12-29T09:10:04.724Z,82.10
2023-12-29T09:12:36.708Z,82.44
2023-12-29T09:15:10.182Z,81.93
2023-12-29T09:17:43.057Z,81.90
2023-12-29T09:20:16.385Z,81.93
2023-12-29T09:22:49.187Z,81.58
2023-12-29T09:25:21.857Z,81.16
2023-12-29T09:27:54.480Z,80.13
2023-12-29T09:30:26.514Z,80.07
2023-12-29T09:32:58.616Z,79.53
2023-12-29T09:35:30.547Z,78.78
2023-12-29T09:38:03.174Z,78.66
2023-12-29T09:40:35.607Z,77.89
2023-12-29T09:43:08.126Z,77.71
2023-12-29T09:45:43.474Z,76.86
2023-12-29T09:48:20.598Z,76.27
2023-12-29T09:50:54.737Z,75.94
2023-12-29T09:53:27.397Z,75.20
2023-12-29T09:56:02.268Z,75.55
2023-12-29T09:58:35.809Z,74.53
2023-12-29T10:01:08.844Z,74.43
2023-12-29T10:03:41.083Z,74.15
2023-12-29T10:06:18.035Z,74.18
2023-12-29T10:08:52.262Z,72.94
2023-12-29T10:11:26.163Z,71.96
2023-12-29T10:14:01.818Z,72.03
2023-12-29T10:16:43.409Z,71.90
2023-12-29T10:19:25.695Z,71.59
2023-12-29T10:22:10.798Z,71.25
2023-12-29T10:24:45.046Z,71.25
2023-12-29T10:27:17.151Z,70.23
2023-12-29T10:29:49.525Z,70.41
2023-12-29T10:32:21.698Z,70.36
2023-12-29T10:35:10.057Z,69.82
2023-12-29T10:37:42.247Z,69.23
2023-12-29T10:40:21.097Z,69.27
2023-12-29T10:43:02.499Z,69.47
2023-12-29T10:45:35.082Z,69.74
2023-12-29T10:48:08.396Z,69.90
2023-12-29T10:50:47.943Z,68.85
2023-12-29T10:53:20.063Z,69.58
2023-12-29T10:55:52.237Z,68.84
2023-12-29T10:58:26.581Z,68.57
2023-12-29T11:00:59.226Z,67.85
2023-12-29T11:03:33.600Z,68.53
2023-12-29T11:06:06.030Z,67.95
2023-12-29T11:08:39.160Z,68.28
2023-12-29T11:11:11.966Z,68.62
2023-12-29T11:13:46.660Z,68.36
2023-12-29T11:16:22.898Z,68.71
2023-12-29T11:18:58.443Z,69.08
2023-12-29T11:21:32.889Z,68.81
2023-12-29T11:24:04.986Z,68.58
2023-12-29T11:26:40.111Z,68.60
2023-12-29T11:29:13.632Z,68.90
2023-12-29T11:31:47.555Z,69.65
2023-12-29T11:34:26.131Z,69.41
2023-12-29T11:37:08.130Z,68.63
2023-12-29T11:39:51.830Z,67.46
2023-12-29T11:42:32.272Z,67.37
2023-12-29T11:45:33.055Z,67.39
2023-12-29T11:48:05.984Z,67.17
2023-12-29T11:50:39.705Z,67.38
2023-12-29T11:53:32.317Z,67.07
2023-12-29T11:56:16.762Z,66.86
2023-12-29T11:58:48.914Z,67.06
2023-12-29T12:01:37.471Z,67.24
2023-12-29T12:04:41.865Z,67.45
2023-12-29T12:07:18.658Z,67.31
2023-12-29T12:09:51.275Z,66.45
2023-12-29T12:12:44.096Z,66.34
2023-12-29T12:15:36.752Z,66.42
2023-12-29T12:18:15.048Z,66.85
2023-12-29T12:20:54.515Z,66.81
2023-12-29T12:23:32.477Z,66.51
2023-12-29T12:26:06.872Z,66.45
2023-12-29T12:28:41.478Z,66.31
2023-12-29T12:31:17.577Z,66.21
2023-12-29T12:33:58.411Z,65.86
2023-12-29T12:36:30.708Z,66.27
2023-12-29T12:39:02.693Z,66.79
2023-12-29T12:41:35.719Z,66.45
2023-12-29T12:44:13.453Z,66.83
2023-12-29T12:46:53.188Z,67.06
2023-12-29T12:49:27.742Z,66.94
2023-12-29T12:52:00.178Z,67.71
2023-12-29T12:54:34.599Z,68.03
2023-12-29T12:57:07.867Z,68.04
2023-12-29T12:59:40.045Z,68.79
2023-12-29T13:02:13.489Z,68.90
2023-12-29T13:04:46.708Z,68.98
2023-12-29T13:07:21.178Z,69.05
2023-12-29T13:09:54.638Z,68.91
2023-12-29T13:12:26.574Z,69.17
2023-12-29T13:15:09.991Z,69.57
2023-12-29T13:17:51.831Z,69.57
2023-12-29T13:20:24.364Z,69.78
2023-12-29T13:22:56.666Z,69.85
2023-12-29T13:25:30.301Z,69.26
2023-12-29T13:28:04.592Z,69.65
2023-12-29T13:30:39.965Z,69.77
2023-12-29T13:33:17.674Z,69.63
2023-12-29T13:36:01.988Z,70.20
2023-12-29T13:38:48.318Z,70.54
2023-12-29T13:41:22.671Z,70.49
2023-12-29T13:43:57.189Z,70.32
2023-12-29T13:46:29.734Z,70.21
2023-12-29T13:49:02.393Z,70.37
2023-12-29T13:51:36.688Z,70.07
2023-12-29T13:54:09.054Z,70.15
2023-12-29T13:56:41.448Z,70.56
2023-12-29T13:59:14.217Z,70.41
2023-12-29T14:01:47.443Z,70.75
2023-12-29T14:04:21.978Z,70.48
2023-12-29T14:07:04.067Z,70.74
2023-12-29T14:09:38.619Z,71.08
2023-12-29T14:12:11.245Z,71.03
2023-12-29T14:14:43.368Z,70.87
2023-12-29T14:17:24.293Z,71.21
2023-12-29T14:20:04.450Z,71.53
2023-12-29T14:22:36.737Z,71.68
2023-12-29T14:25:10.851Z,71.68
2023-12-29T14:27:43.128Z,71.78
2023-12-29T14:30:24.200Z,72.12
2023-12-29T14:32:59.205Z,72.21
2023-12-29T14:35:31.859Z,72.17
2023-12-29T14:38:05.769Z,72.34
2023-12-29T14:40:37.689Z,72.46
2023-12-29T14:43:09.640Z,72.66
2023-12-29T14:45:42.435Z,72.73
2023-12-29T14:48:14.880Z,72.75
2023-12-29T14:50:47.382Z,72.78
2023-12-29T14:53:21.736Z,72.95
2023-12-29T14:55:56.243Z,72.93
2023-12-29T14:58:28.566Z,73.11
2023-12-29T15:01:01.009Z,73.04
2023-12-29T15:03:33.558Z,73.02
2023-12-29T15:06:09.262Z,72.87
2023-12-29T15:08:41.378Z,72.78
2023-12-29T15:11:16.650Z,72.70
2023-12-29T15:13:48.727Z,72.84
2023-12-29T15:16:23.191Z,72.85
2023-12-29T15:18:55.819Z,73.14
2023-12-29T15:21:27.763Z,73.06
2023-12-29T15:23:59.808Z,73.06
2023-12-29T15:26:31.716Z,73.29
2023-12-29T15:29:03.939Z,73.29
2023-12-29T15:31:36.063Z,73.34
2023-12-29T15:34:08.211Z,73.53
2023-12-29T15:36:40.808Z,73.47
2023-12-29T15:39:12.793Z,73.70
2023-12-29T15:41:46.912Z,73.57
2023-12-29T15:44:18.783Z,73.71
2023-12-29T15:46:51.841Z,73.63
2023-12-29T15:49:28.647Z,73.75
2023-12-29T15:52:01.265Z,73.70
2023-12-29T15:54:34.455Z,73.65
2023-12-29T15:57:09.110Z,73.78
2023-12-29T15:59:41.263Z,73.80
2023-12-29T16:02:13.637Z,73.84
2023-12-29T16:04:45.866Z,73.97
2023-12-29T16:07:20.247Z,74.20
2023-12-29T16:09:52.328Z,74.33
2023-12-29T16:12:26.618Z,74.29
2023-12-29T16:14:58.825Z,74.42
2023-12-29T16:17:30.769Z,75.03
2023-12-29T16:20:02.828Z,75.04
2023-12-29T16:22:35.035Z,75.39
2023-12-29T16:25:09.076Z,75.62
2023-12-29T16:27:45.928Z,75.92
2023-12-29T16:30:18.418Z,76.08
2023-12-29T16:32:52.625Z,76.27
2023-12-29T16:35:27.501Z,76.29
2023-12-29T16:38:01.470Z,76.30
2023-12-29T16:40:35.852Z,76.36
2023-12-29T16:43:08.156Z,76.56
2023-12-29T16:45:41.142Z,76.58
2023-12-29T16:48:13.187Z,76.65
2023-12-29T16:50:47.750Z,76.88
2023-12-29T16:53:19.953Z,76.54
2023-12-29T16:55:52.349Z,76.70
2023-12-29T16:58:24.583Z,76.87
2023-12-29T17:00:57.053Z,76.74
2023-12-29T17:03:31.103Z,76.77
2023-12-29T17:06:03.330Z,76.66
2023-12-29T17:08:37.794Z,76.69
2023-12-29T17:11:10.148Z,76.67
2023-12-29T17:13:42.206Z,76.61
2023-12-29T17:16:16.509Z,76.75
2023-12-29T17:18:51.691Z,76.79
2023-12-29T17:21:25.306Z,76.66
2023-12-29T17:23:57.644Z,76.69
2023-12-29T17:26:29.849Z,76.67
2023-12-29T17:29:04.371Z,76.68
2023-12-29T17:31:36.278Z,76.59
2023-12-29T17:34:10.879Z,76.61
2023-12-29T17:36:43.121Z,76.68
2023-12-29T17:39:15.288Z,76.59
2023-12-29T17:41:47.558Z,76.39
2023-12-29T17:44:22.231Z,76.42
2023-12-29T17:46:57.288Z,76.35
2023-12-29T17:49:30.764Z,76.40
2023-12-29T17:52:03.058Z,76.23
2023-12-29T17:54:35.215Z,76.31
2023-12-29T17:57:09.554Z,76.45
2023-12-29T17:59:41.446Z,76.30
2023-12-29T18:02:13.365Z,76.30
2023-12-29T18:04:45.647Z,76.25
2023-12-29T18:07:18.184Z,75.99
2023-12-29T18:09:50.173Z,76.21
2023-12-29T18:12:22.397Z,75.89
2023-12-29T18:14:54.607Z,76.10
2023-12-29T18:17:28.024Z,75.93
2023-12-29T18:20:00.092Z,75.85
2023-12-29T18:22:32.484Z,75.84
2023-12-29T18:25:05.095Z,75.92
2023-12-29T18:27:38.328Z,75.81
2023-12-29T18:30:12.657Z,75.41
2023-12-29T18:32:45.411Z,75.70
2023-12-29T18:35:17.732Z,75.72
2023-12-29T18:37:49.845Z,75.30
2023-12-29T18:40:21.913Z,75.29
2023-12-29T18:42:54.037Z,75.20
2023-12-29T18:45:28.753Z,75.22
2023-12-29T18:48:01.890Z,75.12
2023-12-29T18:50:36.502Z,75.32
2023-12-29T18:53:09.013Z,75.37
2023-12-29T18:55:45.611Z,75.46
2023-12-29T18:58:18.215Z,75.52
2023-12-29T19:00:53.973Z,75.43
2023-12-29T19:03:26.079Z,75.44
2023-12-29T19:06:00.364Z,75.27
2023-12-29T19:08:32.664Z,75.30
2023-12-29T19:11:05.310Z,75.72
2023-12-29T19:13:42.404Z,75.60
2023-12-29T19:16:22.630Z,75.44
2023-12-29T19:18:54.863Z,75.65
2023-12-29T19:21:29.482Z,75.72
2023-12-29T19:24:02.377Z,75.60
2023-12-29T19:26:34.505Z,75.58
2023-12-29T19:29:06.799Z,75.58
2023-12-29T19:31:41.886Z,75.58
2023-12-29T19:34:14.791Z,75.30
2023-12-29T19:36:46.851Z,75.38
2023-12-29T19:39:23.701Z,75.48
2023-12-29T19:41:55.710Z,75.46
2023-12-29T19:44:28.036Z,75.18
2023-12-29T19:47:00.241Z,75.37
2023-12-29T19:49:34.735Z,75.51
2023-12-29T19:52:08.238Z,75.49
2023-12-29T19:54:40.901Z,75.50
2023-12-29T19:57:13.022Z,75.54
2023-12-29T19:59:47.129Z,75.58
2023-12-29T20:02:19.087Z,75.48
2023-12-29T20:04:52.493Z,75.58
2023-12-29T20:07:28.212Z,75.66
2023-12-29T20:10:00.942Z,75.80
2023-12-29T20:12:33.402Z,75.82
2023-12-29T20:15:06.087Z,75.81
2023-12-29T20:17:39.507Z,76.09
2023-12-29T20:20:13.919Z,76.15
2023-12-29T20:22:46.202Z,76.13
2023-12-29T20:25:21.785Z,76.05
2023-12-29T20:27:56.642Z,75.93
2023-12-29T20:30:28.930Z,76.00
2023-12-29T20:33:01.533Z,75.85
2023-12-29T20:35:34.153Z,75.86
2023-12-29T20:38:11.061Z,75.80
2023-12-29T20:40:43.321Z,76.07
2023-12-29T20:43:15.325Z,76.24
2023-12-29T20:45:47.742Z,76.08
2023-12-29T20:48:19.974Z,76.32
2023-12-29T20:50:55.614Z,76.50
2023-12-29T20:53:31.923Z,76.68
2023-12-29T20:56:04.083Z,76.78
2023-12-29T20:58:36.335Z,76.81
2023-12-29T21:01:09.887Z,76.93
2023-12-29T21:03:42.869Z,76.91
2023-12-29T21:06:19.486Z,76.82
2023-12-29T21:08:51.914Z,76.81
2023-12-29T21:11:26.622Z,76.59
2023-12-29T21:13:58.883Z,76.65
2023-12-29T21:16:31.316Z,76.76
2023-12-29T21:19:03.625Z,76.66
2023-12-29T21:21:41.433Z,76.70
2023-12-29T21:24:13.948Z,76.75
2023-12-29T21:26:48.183Z,76.68
2023-12-29T21:29:20.445Z,76.72
2023-12-29T21:31:52.519Z,76.69
2023-12-29T21:34:24.931Z,76.62
2023-12-29T21:36:59.158Z,76.71
2023-12-29T21:39:33.440Z,76.60
2023-12-29T21:42:05.925Z,76.71
2023-12-29T21:44:37.832Z,76.63
2023-12-29T21:47:10.741Z,76.69
2023-12-29T21:49:43.138Z,76.80
2023-12-29T21:52:15.329Z,76.77
2023-12-29T21:54:47.376Z,76.86
2023-12-29T21:57:19.755Z,76.86
2023-12-29T21:59:51.703Z,76.80
2023-12-29T22:02:23.629Z,76.63
2023-12-29T22:04:58.171Z,76.50
2023-12-29T22:07:30.295Z,76.48
2023-12-29T22:10:02.290Z,76.59
2023-12-29T22:12:34.797Z,76.48
2023-12-29T22:15:08.253Z,76.48
2023-12-29T22:17:40.531Z,76.39
2023-12-29T22:20:13.983Z,76.53
2023-12-29T22:22:45.920Z,76.63
2023-12-29T22:25:18.420Z,76.67
2023-12-29T22:27:50.992Z,76.67
2023-12-29T22:30:25.418Z,76.57
2023-12-29T22:32:57.410Z,76.64
2023-12-29T22:35:29.616Z,76.55
2023-12-29T22:38:01.967Z,76.52
2023-12-29T22:40:34.785Z,76.50
2023-12-29T22:43:07.160Z,76.45
2023-12-29T22:45:39.441Z,76.46
2023-12-29T22:48:12.171Z,76.43
2023-12-29T22:50:44.131Z,76.59
2023-12-29T22:53:16.698Z,76.48
2023-12-29T22:55:51.274Z,76.40
2023-12-29T22:58:23.894Z,76.41
2023-12-29T23:00:56.239Z,76.13
2023-12-29T23:03:28.220Z,76.18
2023-12-29T23:06:00.223Z,76.10
2023-12-29T23:08:33.003Z,75.95
2023-12-29T23:11:05.626Z,76.17
2023-12-29T23:13:39.818Z,76.13
2023-12-29T23:16:11.866Z,76.23
2023-12-29T23:18:45.266Z,76.24
2023-12-29T23:21:19.626Z,76.19
2023-12-29T23:23:51.544Z,76.14
2023-12-29T23:26:25.464Z,76.11
2023-12-29T23:28:57.599Z,76.12
2023-12-29T23:31:29.690Z,76.00
2023-12-29T23:34:01.697Z,76.06
2023-12-29T23:36:33.685Z,76.17
2023-12-29T23:39:05.621Z,76.21
2023-12-29T23:41:37.611Z,76.32
2023-12-29T23:44:11.982Z,76.20
2023-12-29T23:46:44.129Z,76.38
2023-12-29T23:49:16.847Z,76.45
2023-12-29T23:51:48.990Z,76.45
2023-12-29T23:54:21.064Z,76.51
2023-12-29T23:56:53.604Z,76.41
2023-12-29T23:59:25.922Z,76.60
